sensor_id;sensor_type;location;lat;lon;timestamp;temperature;humidity
25616;DHT22;13482;48.234;13.006;2022-09-09T00:04:26;15.80;70.50
25616;DHT22;13482;48.234;13.006;2022-09-09T00:07:15;15.80;70.50
25616;DHT22;13482;48.234;13.006;2022-09-09T00:15:22;15.70;70.70
25616;DHT22;13482;48.234;13.006;2022-09-09T00:20:49;15.70;70.80
25616;DHT22;13482;48.234;13.006;2022-09-09T00:23:30;15.60;70.70
25616;DHT22;13482;48.234;13.006;2022-09-09T00:26:31;15.60;70.60
25616;DHT22;13482;48.234;13.006;2022-09-09T00:32:17;15.60;71.00
25616;DHT22;13482;48.234;13.006;2022-09-09T00:34:58;15.50;71.00
25616;DHT22;13482;48.234;13.006;2022-09-09T00:37:29;15.50;70.80
25616;DHT22;13482;48.234;13.006;2022-09-09T00:40:02;15.40;70.60
25616;DHT22;13482;48.234;13.006;2022-09-09T00:42:43;15.40;70.70
25616;DHT22;13482;48.234;13.006;2022-09-09T00:47:49;15.40;70.60
25616;DHT22;13482;48.234;13.006;2022-09-09T00:53:12;15.30;70.70
25616;DHT22;13482;48.234;13.006;2022-09-09T00:56:18;15.30;71.00
25616;DHT22;13482;48.234;13.006;2022-09-09T01:01:41;15.30;71.10
25616;DHT22;13482;48.234;13.006;2022-09-09T01:04:13;15.20;70.90
25616;DHT22;13482;48.234;13.006;2022-09-09T01:06:46;15.20;71.10
25616;DHT22;13482;48.234;13.006;2022-09-09T01:15:09;15.10;71.30
25616;DHT22;13482;48.234;13.006;2022-09-09T01:17:46;15.10;72.30
25616;DHT22;13482;48.234;13.006;2022-09-09T01:23:38;15.00;71.80
25616;DHT22;13482;48.234;13.006;2022-09-09T01:28:54;15.00;71.30
25616;DHT22;13482;48.234;13.006;2022-09-09T01:31:27;14.90;71.40
25616;DHT22;13482;48.234;13.006;2022-09-09T01:33:56;14.90;71.60
25616;DHT22;13482;48.234;13.006;2022-09-09T01:36:51;14.90;71.50
25616;DHT22;13482;48.234;13.006;2022-09-09T01:39:20;14.90;72.30
25616;DHT22;13482;48.234;13.006;2022-09-09T01:41:48;14.90;71.80
25616;DHT22;13482;48.234;13.006;2022-09-09T01:44:15;14.90;71.90
25616;DHT22;13482;48.234;13.006;2022-09-09T01:46:42;14.80;71.90
25616;DHT22;13482;48.234;13.006;2022-09-09T01:49:09;14.80;72.00
25616;DHT22;13482;48.234;13.006;2022-09-09T01:51:38;14.80;72.10
25616;DHT22;13482;48.234;13.006;2022-09-09T01:54:07;14.80;72.20
25616;DHT22;13482;48.234;13.006;2022-09-09T02:05:41;14.80;71.80
25616;DHT22;13482;48.234;13.006;2022-09-09T02:11:17;14.70;72.00
25616;DHT22;13482;48.234;13.006;2022-09-09T02:13:47;14.70;71.60
25616;DHT22;13482;48.234;13.006;2022-09-09T02:16:30;14.60;71.50
25616;DHT22;13482;48.234;13.006;2022-09-09T02:21:42;14.60;72.20
25616;DHT22;13482;48.234;13.006;2022-09-09T02:24:13;14.60;72.20
25616;DHT22;13482;48.234;13.006;2022-09-09T02:26:43;14.60;72.20
25616;DHT22;13482;48.234;13.006;2022-09-09T02:31:44;14.60;72.10
25616;DHT22;13482;48.234;13.006;2022-09-09T02:34:14;14.60;72.10
25616;DHT22;13482;48.234;13.006;2022-09-09T02:36:46;14.60;72.20
25616;DHT22;13482;48.234;13.006;2022-09-09T02:39:14;14.60;72.40
25616;DHT22;13482;48.234;13.006;2022-09-09T02:41:41;14.60;72.40
25616;DHT22;13482;48.234;13.006;2022-09-09T02:44:13;14.60;72.40
25616;DHT22;13482;48.234;13.006;2022-09-09T02:58:13;14.60;73.40
25616;DHT22;13482;48.234;13.006;2022-09-09T03:00:47;14.60;72.70
25616;DHT22;13482;48.234;13.006;2022-09-09T03:03:17;14.50;72.70
25616;DHT22;13482;48.234;13.006;2022-09-09T03:05:46;14.50;72.80
25616;DHT22;13482;48.234;13.006;2022-09-09T03:08:13;14.50;72.80
25616;DHT22;13482;48.234;13.006;2022-09-09T03:10:40;14.50;72.90
25616;DHT22;13482;48.234;13.006;2022-09-09T03:13:08;14.50;72.90
25616;DHT22;13482;48.234;13.006;2022-09-09T03:15:36;14.50;73.00
25616;DHT22;13482;48.234;13.006;2022-09-09T03:18:03;14.50;73.10
25616;DHT22;13482;48.234;13.006;2022-09-09T03:20:31;14.50;73.20
25616;DHT22;13482;48.234;13.006;2022-09-09T03:23:00;14.50;73.30
25616;DHT22;13482;48.234;13.006;2022-09-09T03:25:27;14.60;73.40
25616;DHT22;13482;48.234;13.006;2022-09-09T03:27:55;14.60;73.40
25616;DHT22;13482;48.234;13.006;2022-09-09T03:30:24;14.60;73.50
25616;DHT22;13482;48.234;13.006;2022-09-09T03:32:53;14.60;73.60
25616;DHT22;13482;48.234;13.006;2022-09-09T03:35:21;14.70;73.60
25616;DHT22;13482;48.234;13.006;2022-09-09T03:37:49;14.70;73.60
25616;DHT22;13482;48.234;13.006;2022-09-09T03:40:16;14.70;73.60
25616;DHT22;13482;48.234;13.006;2022-09-09T03:42:43;14.80;73.60
25616;DHT22;13482;48.234;13.006;2022-09-09T03:45:11;14.80;73.60
25616;DHT22;13482;48.234;13.006;2022-09-09T03:47:38;14.80;73.60
25616;DHT22;13482;48.234;13.006;2022-09-09T03:50:07;14.80;73.60
25616;DHT22;13482;48.234;13.006;2022-09-09T03:52:39;14.90;73.70
25616;DHT22;13482;48.234;13.006;2022-09-09T03:55:08;14.90;73.60
25616;DHT22;13482;48.234;13.006;2022-09-09T03:57:35;14.90;73.60
25616;DHT22;13482;48.234;13.006;2022-09-09T04:00:05;14.90;73.70
25616;DHT22;13482;48.234;13.006;2022-09-09T04:02:33;15.00;73.70
25616;DHT22;13482;48.234;13.006;2022-09-09T04:05:01;15.00;73.70
25616;DHT22;13482;48.234;13.006;2022-09-09T04:07:28;15.00;73.70
25616;DHT22;13482;48.234;13.006;2022-09-09T04:09:55;15.00;73.80
25616;DHT22;13482;48.234;13.006;2022-09-09T04:12:23;15.10;73.80
25616;DHT22;13482;48.234;13.006;2022-09-09T04:14:50;15.10;73.80
25616;DHT22;13482;48.234;13.006;2022-09-09T04:17:17;15.10;73.90
25616;DHT22;13482;48.234;13.006;2022-09-09T04:19:44;15.10;73.90
25616;DHT22;13482;48.234;13.006;2022-09-09T04:22:12;15.20;73.90
25616;DHT22;13482;48.234;13.006;2022-09-09T04:24:39;15.20;74.00
25616;DHT22;13482;48.234;13.006;2022-09-09T04:27:11;15.20;74.00
25616;DHT22;13482;48.234;13.006;2022-09-09T04:29:38;15.20;74.00
25616;DHT22;13482;48.234;13.006;2022-09-09T04:32:05;15.30;74.00
25616;DHT22;13482;48.234;13.006;2022-09-09T04:34:32;15.30;74.10
25616;DHT22;13482;48.234;13.006;2022-09-09T04:36:59;15.30;74.10
25616;DHT22;13482;48.234;13.006;2022-09-09T04:39:27;15.30;74.20
25616;DHT22;13482;48.234;13.006;2022-09-09T04:41:56;15.40;74.20
25616;DHT22;13482;48.234;13.006;2022-09-09T04:44:23;15.40;74.30
25616;DHT22;13482;48.234;13.006;2022-09-09T04:46:50;15.40;74.40
25616;DHT22;13482;48.234;13.006;2022-09-09T04:49:17;15.50;74.50
25616;DHT22;13482;48.234;13.006;2022-09-09T04:51:44;15.50;74.60
25616;DHT22;13482;48.234;13.006;2022-09-09T04:54:13;15.50;74.80
25616;DHT22;13482;48.234;13.006;2022-09-09T04:56:41;15.60;74.70
25616;DHT22;13482;48.234;13.006;2022-09-09T04:59:09;15.60;74.80
25616;DHT22;13482;48.234;13.006;2022-09-09T05:01:37;15.60;74.80
25616;DHT22;13482;48.234;13.006;2022-09-09T05:04:04;15.70;74.80
25616;DHT22;13482;48.234;13.006;2022-09-09T05:06:32;15.70;74.80
25616;DHT22;13482;48.234;13.006;2022-09-09T05:08:59;15.80;74.90
25616;DHT22;13482;48.234;13.006;2022-09-09T05:11:29;15.80;74.90
25616;DHT22;13482;48.234;13.006;2022-09-09T05:13:58;15.80;75.00
25616;DHT22;13482;48.234;13.006;2022-09-09T05:16:25;15.90;75.70
25616;DHT22;13482;48.234;13.006;2022-09-09T05:18:53;15.90;74.60
25616;DHT22;13482;48.234;13.006;2022-09-09T05:21:22;16.00;74.80
25616;DHT22;13482;48.234;13.006;2022-09-09T05:23:50;16.00;74.90
25616;DHT22;13482;48.234;13.006;2022-09-09T05:26:22;16.00;74.90
25616;DHT22;13482;48.234;13.006;2022-09-09T05:28:49;16.10;75.00
25616;DHT22;13482;48.234;13.006;2022-09-09T05:31:17;16.10;75.00
25616;DHT22;13482;48.234;13.006;2022-09-09T05:33:46;16.10;75.00
25616;DHT22;13482;48.234;13.006;2022-09-09T05:36:18;16.10;75.00
25616;DHT22;13482;48.234;13.006;2022-09-09T05:38:47;16.20;75.00
25616;DHT22;13482;48.234;13.006;2022-09-09T05:41:16;16.20;75.00
25616;DHT22;13482;48.234;13.006;2022-09-09T05:43:44;16.30;75.00
25616;DHT22;13482;48.234;13.006;2022-09-09T05:46:18;16.30;75.00
25616;DHT22;13482;48.234;13.006;2022-09-09T05:48:50;16.30;75.20
25616;DHT22;13482;48.234;13.006;2022-09-09T05:51:23;16.30;75.10
25616;DHT22;13482;48.234;13.006;2022-09-09T05:53:53;16.40;75.20
25616;DHT22;13482;48.234;13.006;2022-09-09T05:56:23;16.40;75.20
25616;DHT22;13482;48.234;13.006;2022-09-09T05:58:53;16.40;75.20
25616;DHT22;13482;48.234;13.006;2022-09-09T06:01:26;16.50;75.20
25616;DHT22;13482;48.234;13.006;2022-09-09T06:03:58;16.50;75.30
25616;DHT22;13482;48.234;13.006;2022-09-09T06:06:29;16.50;75.10
25616;DHT22;13482;48.234;13.006;2022-09-09T06:08:58;16.60;75.20
25616;DHT22;13482;48.234;13.006;2022-09-09T06:11:27;16.60;75.30
25616;DHT22;13482;48.234;13.006;2022-09-09T06:13:58;16.60;75.40
25616;DHT22;13482;48.234;13.006;2022-09-09T06:16:27;16.70;75.50
25616;DHT22;13482;48.234;13.006;2022-09-09T06:18:56;16.70;75.60
25616;DHT22;13482;48.234;13.006;2022-09-09T06:23:54;16.80;75.80
25616;DHT22;13482;48.234;13.006;2022-09-09T06:26:30;16.90;75.80
25616;DHT22;13482;48.234;13.006;2022-09-09T06:29:00;17.00;75.90
25616;DHT22;13482;48.234;13.006;2022-09-09T06:31:32;17.10;76.00
25616;DHT22;13482;48.234;13.006;2022-09-09T06:34:07;17.10;76.20
25616;DHT22;13482;48.234;13.006;2022-09-09T06:36:37;17.30;76.30
25616;DHT22;13482;48.234;13.006;2022-09-09T06:39:06;17.40;76.10
25616;DHT22;13482;48.234;13.006;2022-09-09T06:41:40;17.50;75.90
25616;DHT22;13482;48.234;13.006;2022-09-09T06:44:07;17.50;75.80
25616;DHT22;13482;48.234;13.006;2022-09-09T06:46:35;17.60;75.80
25616;DHT22;13482;48.234;13.006;2022-09-09T06:49:02;17.70;75.80
25616;DHT22;13482;48.234;13.006;2022-09-09T06:51:33;17.80;75.80
25616;DHT22;13482;48.234;13.006;2022-09-09T06:54:02;17.80;75.60
25616;DHT22;13482;48.234;13.006;2022-09-09T06:56:35;17.80;75.40
25616;DHT22;13482;48.234;13.006;2022-09-09T06:59:05;17.90;75.30
25616;DHT22;13482;48.234;13.006;2022-09-09T07:01:36;17.90;75.10
25616;DHT22;13482;48.234;13.006;2022-09-09T07:04:07;18.00;75.10
25616;DHT22;13482;48.234;13.006;2022-09-09T07:06:40;18.00;75.10
25616;DHT22;13482;48.234;13.006;2022-09-09T07:09:12;18.00;75.10
25616;DHT22;13482;48.234;13.006;2022-09-09T07:11:42;18.00;75.10
25616;DHT22;13482;48.234;13.006;2022-09-09T07:14:11;18.10;75.20
25616;DHT22;13482;48.234;13.006;2022-09-09T07:16:42;18.10;75.20
25616;DHT22;13482;48.234;13.006;2022-09-09T07:19:11;18.10;75.30
25616;DHT22;13482;48.234;13.006;2022-09-09T07:21:41;18.10;75.30
25616;DHT22;13482;48.234;13.006;2022-09-09T07:24:09;18.20;75.20
25616;DHT22;13482;48.234;13.006;2022-09-09T07:26:40;18.20;75.20
25616;DHT22;13482;48.234;13.006;2022-09-09T07:29:08;18.20;75.20
25616;DHT22;13482;48.234;13.006;2022-09-09T07:31:37;18.30;75.20
25616;DHT22;13482;48.234;13.006;2022-09-09T07:34:06;18.30;75.20
25616;DHT22;13482;48.234;13.006;2022-09-09T07:36:36;18.30;75.20
25616;DHT22;13482;48.234;13.006;2022-09-09T07:39:10;18.40;75.20
25616;DHT22;13482;48.234;13.006;2022-09-09T07:41:42;18.40;75.30
25616;DHT22;13482;48.234;13.006;2022-09-09T07:44:22;18.50;75.20
25616;DHT22;13482;48.234;13.006;2022-09-09T07:46:51;18.50;75.50
25616;DHT22;13482;48.234;13.006;2022-09-09T07:49:19;18.50;75.20
25616;DHT22;13482;48.234;13.006;2022-09-09T07:51:55;18.50;75.40
25616;DHT22;13482;48.234;13.006;2022-09-09T07:54:22;18.60;75.50
25616;DHT22;13482;48.234;13.006;2022-09-09T07:56:52;18.60;75.50
25616;DHT22;13482;48.234;13.006;2022-09-09T07:59:19;18.70;75.60
25616;DHT22;13482;48.234;13.006;2022-09-09T08:01:49;18.80;75.50
25616;DHT22;13482;48.234;13.006;2022-09-09T08:04:19;18.90;75.40
25616;DHT22;13482;48.234;13.006;2022-09-09T08:06:53;18.90;75.50
25616;DHT22;13482;48.234;13.006;2022-09-09T08:09:26;19.00;75.70
25616;DHT22;13482;48.234;13.006;2022-09-09T08:11:56;19.10;75.50
25616;DHT22;13482;48.234;13.006;2022-09-09T08:14:24;19.20;75.50
25616;DHT22;13482;48.234;13.006;2022-09-09T08:16:51;19.20;75.50
25616;DHT22;13482;48.234;13.006;2022-09-09T08:19:21;19.30;75.50
25616;DHT22;13482;48.234;13.006;2022-09-09T08:21:48;19.40;75.50
25616;DHT22;13482;48.234;13.006;2022-09-09T08:24:16;19.40;75.50
25616;DHT22;13482;48.234;13.006;2022-09-09T08:26:45;19.50;75.40
25616;DHT22;13482;48.234;13.006;2022-09-09T08:29:16;19.50;75.20
25616;DHT22;13482;48.234;13.006;2022-09-09T08:31:52;19.60;75.00
25616;DHT22;13482;48.234;13.006;2022-09-09T08:34:21;19.60;74.80
25616;DHT22;13482;48.234;13.006;2022-09-09T08:36:50;19.60;74.50
25616;DHT22;13482;48.234;13.006;2022-09-09T08:39:20;19.60;74.40
25616;DHT22;13482;48.234;13.006;2022-09-09T08:47:30;19.70;74.40
25616;DHT22;13482;48.234;13.006;2022-09-09T08:50:11;19.70;74.80
25616;DHT22;13482;48.234;13.006;2022-09-09T08:53:04;19.70;74.40
25616;DHT22;13482;48.234;13.006;2022-09-09T08:58:31;19.80;74.60
25616;DHT22;13482;48.234;13.006;2022-09-09T09:01:25;19.80;74.40
25616;DHT22;13482;48.234;13.006;2022-09-09T09:10:35;19.90;74.60
25616;DHT22;13482;48.234;13.006;2022-09-09T09:13:43;19.90;74.50
25616;DHT22;13482;48.234;13.006;2022-09-09T09:16:39;20.00;74.60
25616;DHT22;13482;48.234;13.006;2022-09-09T09:19:15;20.00;74.40
25616;DHT22;13482;48.234;13.006;2022-09-09T09:21:44;20.00;74.00
25616;DHT22;13482;48.234;13.006;2022-09-09T09:24:18;20.10;74.00
25616;DHT22;13482;48.234;13.006;2022-09-09T09:27:30;20.10;74.00
25616;DHT22;13482;48.234;13.006;2022-09-09T09:30:20;20.10;74.00
25616;DHT22;13482;48.234;13.006;2022-09-09T09:33:15;20.20;74.20
25616;DHT22;13482;48.234;13.006;2022-09-09T09:35:49;20.20;74.20
25616;DHT22;13482;48.234;13.006;2022-09-09T09:38:22;20.20;74.00
25616;DHT22;13482;48.234;13.006;2022-09-09T09:41:11;20.20;74.00
25616;DHT22;13482;48.234;13.006;2022-09-09T09:43:40;20.20;73.90
25616;DHT22;13482;48.234;13.006;2022-09-09T09:46:24;20.20;74.00
25616;DHT22;13482;48.234;13.006;2022-09-09T09:49:03;20.20;74.20
25616;DHT22;13482;48.234;13.006;2022-09-09T09:51:35;20.30;74.00
25616;DHT22;13482;48.234;13.006;2022-09-09T09:54:14;20.30;74.00
25616;DHT22;13482;48.234;13.006;2022-09-09T09:56:43;20.30;74.10
25616;DHT22;13482;48.234;13.006;2022-09-09T09:59:32;20.30;74.10
25616;DHT22;13482;48.234;13.006;2022-09-09T10:02:24;20.40;74.30
25616;DHT22;13482;48.234;13.006;2022-09-09T10:07:33;20.40;74.20
25616;DHT22;13482;48.234;13.006;2022-09-09T10:10:00;20.40;74.00
25616;DHT22;13482;48.234;13.006;2022-09-09T10:15:31;20.50;73.90
25616;DHT22;13482;48.234;13.006;2022-09-09T10:33:16;20.60;73.70
25616;DHT22;13482;48.234;13.006;2022-09-09T10:36:24;20.50;73.90
25616;DHT22;13482;48.234;13.006;2022-09-09T10:39:19;20.50;74.00
25616;DHT22;13482;48.234;13.006;2022-09-09T10:42:09;20.50;74.20
25616;DHT22;13482;48.234;13.006;2022-09-09T10:45:20;20.50;74.00
25616;DHT22;13482;48.234;13.006;2022-09-09T10:51:28;20.50;74.20
25616;DHT22;13482;48.234;13.006;2022-09-09T10:54:23;20.60;74.10
25616;DHT22;13482;48.234;13.006;2022-09-09T10:57:29;20.60;73.90
25616;DHT22;13482;48.234;13.006;2022-09-09T11:00:06;20.50;73.90
25616;DHT22;13482;48.234;13.006;2022-09-09T11:02:44;20.50;73.90
25616;DHT22;13482;48.234;13.006;2022-09-09T11:05:42;20.50;74.00
25616;DHT22;13482;48.234;13.006;2022-09-09T11:08:13;20.50;74.70
25616;DHT22;13482;48.234;13.006;2022-09-09T11:10:51;20.50;74.30
25616;DHT22;13482;48.234;13.006;2022-09-09T11:19:39;20.70;74.90
25616;DHT22;13482;48.234;13.006;2022-09-09T11:24:57;20.80;75.00
25616;DHT22;13482;48.234;13.006;2022-09-09T11:30:52;21.00;75.00
25616;DHT22;13482;48.234;13.006;2022-09-09T11:44:48;21.30;74.10
25616;DHT22;13482;48.234;13.006;2022-09-09T11:47:28;21.30;74.20
25616;DHT22;13482;48.234;13.006;2022-09-09T11:53:03;21.40;74.30
25616;DHT22;13482;48.234;13.006;2022-09-09T11:55:47;21.40;74.10
25616;DHT22;13482;48.234;13.006;2022-09-09T11:58:17;21.50;73.80
25616;DHT22;13482;48.234;13.006;2022-09-09T12:00:49;21.60;73.60
25616;DHT22;13482;48.234;13.006;2022-09-09T12:03:48;21.60;73.70
25616;DHT22;13482;48.234;13.006;2022-09-09T12:06:31;21.60;73.80
25616;DHT22;13482;48.234;13.006;2022-09-09T12:09:18;21.70;73.70
25616;DHT22;13482;48.234;13.006;2022-09-09T12:11:46;21.70;73.90
25616;DHT22;13482;48.234;13.006;2022-09-09T12:14:34;21.70;73.80
25616;DHT22;13482;48.234;13.006;2022-09-09T12:17:58;21.80;73.60
25616;DHT22;13482;48.234;13.006;2022-09-09T12:20:26;21.80;73.50
25616;DHT22;13482;48.234;13.006;2022-09-09T12:23:23;21.90;73.20
25616;DHT22;13482;48.234;13.006;2022-09-09T12:26:12;21.90;73.10
25616;DHT22;13482;48.234;13.006;2022-09-09T12:32:10;21.90;73.10
25616;DHT22;13482;48.234;13.006;2022-09-09T12:40:24;21.90;73.60
25616;DHT22;13482;48.234;13.006;2022-09-09T12:43:16;21.90;73.80
25616;DHT22;13482;48.234;13.006;2022-09-09T12:45:45;21.90;73.50
25616;DHT22;13482;48.234;13.006;2022-09-09T12:48:13;21.90;73.50
25616;DHT22;13482;48.234;13.006;2022-09-09T12:50:53;21.90;73.50
25616;DHT22;13482;48.234;13.006;2022-09-09T12:56:07;21.90;73.40
25616;DHT22;13482;48.234;13.006;2022-09-09T12:58:37;21.80;73.50
25616;DHT22;13482;48.234;13.006;2022-09-09T13:01:05;21.70;73.70
25616;DHT22;13482;48.234;13.006;2022-09-09T13:03:41;21.70;73.90
25616;DHT22;13482;48.234;13.006;2022-09-09T13:06:29;21.70;73.90
25616;DHT22;13482;48.234;13.006;2022-09-09T13:08:59;21.70;74.20
25616;DHT22;13482;48.234;13.006;2022-09-09T13:14:19;21.70;74.00
25616;DHT22;13482;48.234;13.006;2022-09-09T13:17:01;21.70;74.30
25616;DHT22;13482;48.234;13.006;2022-09-09T13:19:34;21.70;74.20
25616;DHT22;13482;48.234;13.006;2022-09-09T13:22:42;21.70;74.20
25616;DHT22;13482;48.234;13.006;2022-09-09T13:27:41;21.80;74.20
25616;DHT22;13482;48.234;13.006;2022-09-09T13:30:33;21.80;74.40
25616;DHT22;13482;48.234;13.006;2022-09-09T13:35:58;21.90;74.30
25616;DHT22;13482;48.234;13.006;2022-09-09T13:38:37;22.00;74.30
25616;DHT22;13482;48.234;13.006;2022-09-09T13:41:09;22.00;74.50
25616;DHT22;13482;48.234;13.006;2022-09-09T13:43:45;22.10;74.50
25616;DHT22;13482;48.234;13.006;2022-09-09T13:46:32;22.20;74.70
25616;DHT22;13482;48.234;13.006;2022-09-09T13:51:46;22.30;74.70
25616;DHT22;13482;48.234;13.006;2022-09-09T13:54:17;22.40;74.40
25616;DHT22;13482;48.234;13.006;2022-09-09T13:56:46;22.50;74.20
25616;DHT22;13482;48.234;13.006;2022-09-09T13:59:18;22.60;74.00
25616;DHT22;13482;48.234;13.006;2022-09-09T14:01:46;22.60;73.50
25616;DHT22;13482;48.234;13.006;2022-09-09T14:04:14;22.60;73.30
25616;DHT22;13482;48.234;13.006;2022-09-09T14:06:42;22.60;73.20
25616;DHT22;13482;48.234;13.006;2022-09-09T14:09:12;22.60;73.00
25616;DHT22;13482;48.234;13.006;2022-09-09T14:11:40;22.60;73.10
25616;DHT22;13482;48.234;13.006;2022-09-09T14:14:08;22.60;73.10
25616;DHT22;13482;48.234;13.006;2022-09-09T14:16:35;22.60;72.90
25616;DHT22;13482;48.234;13.006;2022-09-09T14:19:03;22.60;72.80
25616;DHT22;13482;48.234;13.006;2022-09-09T14:21:30;22.60;72.90
25616;DHT22;13482;48.234;13.006;2022-09-09T14:23:57;22.70;73.00
25616;DHT22;13482;48.234;13.006;2022-09-09T14:26:25;22.70;73.30
25616;DHT22;13482;48.234;13.006;2022-09-09T14:28:52;22.80;73.30
25616;DHT22;13482;48.234;13.006;2022-09-09T14:31:23;22.90;73.20
25616;DHT22;13482;48.234;13.006;2022-09-09T14:33:51;22.90;73.30
25616;DHT22;13482;48.234;13.006;2022-09-09T14:36:18;23.00;73.10
25616;DHT22;13482;48.234;13.006;2022-09-09T14:38:46;23.10;72.60
25616;DHT22;13482;48.234;13.006;2022-09-09T14:41:16;23.20;72.60
25616;DHT22;13482;48.234;13.006;2022-09-09T14:43:45;23.30;72.20
25616;DHT22;13482;48.234;13.006;2022-09-09T14:46:15;23.30;72.00
25616;DHT22;13482;48.234;13.006;2022-09-09T14:48:43;23.30;71.90
25616;DHT22;13482;48.234;13.006;2022-09-09T14:51:20;23.30;71.50
25616;DHT22;13482;48.234;13.006;2022-09-09T14:53:53;23.40;71.10
25616;DHT22;13482;48.234;13.006;2022-09-09T14:56:24;23.40;71.10
25616;DHT22;13482;48.234;13.006;2022-09-09T14:58:54;23.40;71.30
25616;DHT22;13482;48.234;13.006;2022-09-09T15:01:23;23.40;71.40
25616;DHT22;13482;48.234;13.006;2022-09-09T15:04:02;23.40;71.30
25616;DHT22;13482;48.234;13.006;2022-09-09T15:06:33;23.50;70.70
25616;DHT22;13482;48.234;13.006;2022-09-09T15:09:03;23.60;70.90
25616;DHT22;13482;48.234;13.006;2022-09-09T15:11:34;23.60;70.70
25616;DHT22;13482;48.234;13.006;2022-09-09T15:14:06;23.70;70.40
25616;DHT22;13482;48.234;13.006;2022-09-09T15:16:35;23.70;70.20
25616;DHT22;13482;48.234;13.006;2022-09-09T15:19:03;23.70;70.10
25616;DHT22;13482;48.234;13.006;2022-09-09T15:21:33;23.70;69.40
25616;DHT22;13482;48.234;13.006;2022-09-09T15:24:02;23.70;69.50
25616;DHT22;13482;48.234;13.006;2022-09-09T15:26:31;23.70;69.40
25616;DHT22;13482;48.234;13.006;2022-09-09T15:28:58;23.70;69.90
25616;DHT22;13482;48.234;13.006;2022-09-09T15:31:30;23.80;69.90
25616;DHT22;13482;48.234;13.006;2022-09-09T15:34:05;23.80;69.40
25616;DHT22;13482;48.234;13.006;2022-09-09T15:36:39;23.90;69.50
25616;DHT22;13482;48.234;13.006;2022-09-09T15:39:09;23.90;69.70
25616;DHT22;13482;48.234;13.006;2022-09-09T15:41:43;24.00;69.40
25616;DHT22;13482;48.234;13.006;2022-09-09T15:44:12;24.00;69.20
25616;DHT22;13482;48.234;13.006;2022-09-09T15:46:44;24.00;68.90
25616;DHT22;13482;48.234;13.006;2022-09-09T15:49:15;24.00;68.50
25616;DHT22;13482;48.234;13.006;2022-09-09T15:51:54;23.90;68.50
25616;DHT22;13482;48.234;13.006;2022-09-09T15:54:26;23.80;68.20
25616;DHT22;13482;48.234;13.006;2022-09-09T15:56:55;23.70;68.50
25616;DHT22;13482;48.234;13.006;2022-09-09T15:59:26;23.60;68.50
25616;DHT22;13482;48.234;13.006;2022-09-09T16:01:55;23.40;68.60
25616;DHT22;13482;48.234;13.006;2022-09-09T16:04:24;23.30;68.60
25616;DHT22;13482;48.234;13.006;2022-09-09T16:06:57;23.20;68.60
25616;DHT22;13482;48.234;13.006;2022-09-09T16:09:26;23.00;68.70
25616;DHT22;13482;48.234;13.006;2022-09-09T16:11:58;22.90;68.90
25616;DHT22;13482;48.234;13.006;2022-09-09T16:14:28;22.90;69.00
25616;DHT22;13482;48.234;13.006;2022-09-09T16:16:55;22.80;69.30
25616;DHT22;13482;48.234;13.006;2022-09-09T16:19:25;22.70;69.30
25616;DHT22;13482;48.234;13.006;2022-09-09T16:21:52;22.60;69.40
25616;DHT22;13482;48.234;13.006;2022-09-09T16:24:20;22.50;69.50
25616;DHT22;13482;48.234;13.006;2022-09-09T16:26:50;22.40;69.50
25616;DHT22;13482;48.234;13.006;2022-09-09T16:29:19;22.40;69.60
25616;DHT22;13482;48.234;13.006;2022-09-09T16:31:47;22.20;69.50
25616;DHT22;13482;48.234;13.006;2022-09-09T16:34:16;22.20;69.60
25616;DHT22;13482;48.234;13.006;2022-09-09T16:36:44;22.10;69.60
25616;DHT22;13482;48.234;13.006;2022-09-09T16:39:14;22.10;69.80
25616;DHT22;13482;48.234;13.006;2022-09-09T16:41:44;22.10;69.80
25616;DHT22;13482;48.234;13.006;2022-09-09T16:44:13;22.00;69.90
25616;DHT22;13482;48.234;13.006;2022-09-09T16:46:43;22.00;69.90
25616;DHT22;13482;48.234;13.006;2022-09-09T16:49:15;22.00;69.90
25616;DHT22;13482;48.234;13.006;2022-09-09T16:51:48;21.90;69.90
25616;DHT22;13482;48.234;13.006;2022-09-09T16:54:16;21.90;69.80
25616;DHT22;13482;48.234;13.006;2022-09-09T16:56:46;21.90;69.80
25616;DHT22;13482;48.234;13.006;2022-09-09T16:59:16;21.90;69.80
25616;DHT22;13482;48.234;13.006;2022-09-09T17:01:48;21.80;69.90
25616;DHT22;13482;48.234;13.006;2022-09-09T17:04:18;21.80;69.90
25616;DHT22;13482;48.234;13.006;2022-09-09T17:06:49;21.80;70.00
25616;DHT22;13482;48.234;13.006;2022-09-09T17:09:18;21.80;70.00
25616;DHT22;13482;48.234;13.006;2022-09-09T17:11:47;21.70;70.00
25616;DHT22;13482;48.234;13.006;2022-09-09T17:14:19;21.70;70.00
25616;DHT22;13482;48.234;13.006;2022-09-09T17:16:49;21.70;70.10
25616;DHT22;13482;48.234;13.006;2022-09-09T17:19:17;21.60;70.00
25616;DHT22;13482;48.234;13.006;2022-09-09T17:21:44;21.60;70.10
25616;DHT22;13482;48.234;13.006;2022-09-09T17:24:34;21.60;70.20
25616;DHT22;13482;48.234;13.006;2022-09-09T17:27:02;21.50;70.10
25616;DHT22;13482;48.234;13.006;2022-09-09T17:29:30;21.50;70.10
25616;DHT22;13482;48.234;13.006;2022-09-09T17:31:57;21.40;70.10
25616;DHT22;13482;48.234;13.006;2022-09-09T17:34:24;21.30;70.30
25616;DHT22;13482;48.234;13.006;2022-09-09T17:36:52;21.30;70.20
25616;DHT22;13482;48.234;13.006;2022-09-09T17:39:19;21.30;70.20
25616;DHT22;13482;48.234;13.006;2022-09-09T17:41:47;21.20;70.30
25616;DHT22;13482;48.234;13.006;2022-09-09T17:44:14;21.20;70.30
25616;DHT22;13482;48.234;13.006;2022-09-09T17:46:42;21.10;70.30
25616;DHT22;13482;48.234;13.006;2022-09-09T17:49:12;21.10;70.40
25616;DHT22;13482;48.234;13.006;2022-09-09T17:51:42;21.00;70.40
25616;DHT22;13482;48.234;13.006;2022-09-09T17:54:13;21.00;70.50
25616;DHT22;13482;48.234;13.006;2022-09-09T17:56:43;21.00;70.50
25616;DHT22;13482;48.234;13.006;2022-09-09T17:59:13;20.90;70.50
25616;DHT22;13482;48.234;13.006;2022-09-09T18:01:44;20.90;70.60
25616;DHT22;13482;48.234;13.006;2022-09-09T18:04:15;20.90;70.60
25616;DHT22;13482;48.234;13.006;2022-09-09T18:06:45;20.90;70.40
25616;DHT22;13482;48.234;13.006;2022-09-09T18:09:17;20.90;70.50
25616;DHT22;13482;48.234;13.006;2022-09-09T18:11:47;20.80;70.60
25616;DHT22;13482;48.234;13.006;2022-09-09T18:14:18;20.80;70.70
25616;DHT22;13482;48.234;13.006;2022-09-09T18:16:47;20.80;70.70
25616;DHT22;13482;48.234;13.006;2022-09-09T18:19:17;20.70;70.70
25616;DHT22;13482;48.234;13.006;2022-09-09T18:21:46;20.70;70.70
25616;DHT22;13482;48.234;13.006;2022-09-09T18:24:16;20.70;70.80